Dubuque Regional Airport
KDBQ : now visible

Airfield :











YOU CAN JOIN US ON...

 
LOGIN :

Register | Disclaimer

   EN    FR    IT 

 









Legend :    VFR   Marginal VFR   IFR   Intensive IFR   Very Intensive IFR
Visi :
Ceiling :
>= 8 km
>= 3000ft
5 to 8 km
1000 to 3000 ft
1500m to 5 km
500 to 1000 ft
800 to 1500m
200 to 500 ft
< 800m
< 200 ft
Symbols :   Thunderstorms  Fog  Heavy snow  Heavy precipitations  Wind > 20 kt






- Airport Elevation : 1077 ft
- IATA code : DBQ


KDBQ - Dubuque Regional

CURRENT METAR :
  • 260453Z AUTO 13007KT 10SM CLR 17/11 A2981 RMK AO2 SLP093 T01670111 $

EXPIRED METARs :
  • 260353Z AUTO 11007KT 10SM CLR 17/11 A2981 RMK AO2 SLP093 T01670106 $
  • 260253Z 13007KT 10SM CLR 18/11 A2982 RMK AO2 SLP097 T01830106 58007 $
  • 260153Z 12006KT 10SM CLR 19/11 A2983 RMK AO2 SLP099 T01890106 $
  • 260053Z 14005KT 10SM CLR 20/12 A2985 RMK AO2 SLP106 T02000117 $

TAF KDBQ
Valid from the 26 at 00:00 until the 27 at 00:00 UTC


252323Z 2600/2624 19007KT P6SM BKN250
FM260400 14010KT P6SM BKN100
FM260900 13009G15KT 6SM -SHRA BR OVC060
TEMPO 2609/2613 VRB14G25KT 3SM TSRA BR OVC030CB
FM261300 13014G20KT 6SM -RA BR OVC020
FM261700 15013KT P6SM OVC012
KZAU FIR / North America



MET'MAP, your aeronautical weather chart ! - Copyright ORBIFLY December 2007 - Disclaimer

ORBIFLY MET'MAP TEAM :

Programming & Development : Alexandra Zaïnal
Original concept : Baudouin d'Aumeries
Technical & hardware support : Manuel Goepfert
Assistance : Marc-Olivier Méhu




SOURCES & CREDITS :

   NOAA       Earth
Advisory